Time;durP1;ratioP1;P1;durP2;ratioP2;P2;SDS_P1;SDS_P2;PMS_P1;PMS_P2;Temp;Humidity;BMP_temperature;BMP_pressure;BME280_temperature;BME280_humidity;BME280_pressure;Samples;Min_cycle;Max_cycle;Signal;HPM_P1;HPM_P2
2021/04/15 00:00:50;;;;;;;10.02;7.60;;;;;;;4.75;66.87;101639.25;5093764;28;20393;-61
2021/04/15 00:03:20;;;;;;;10.10;7.93;;;;;;;4.71;67.17;101638.06;5094733;28;20056;-61
2021/04/15 00:05:47;;;;;;;9.75;8.43;;;;;;;4.65;67.06;101648.16;5095157;28;20060;-62
2021/04/15 00:08:16;;;;;;;9.18;7.68;;;;;;;4.59;67.39;101651.91;5094507;28;20048;-62
2021/04/15 00:10:47;;;;;;;10.85;9.45;;;;;;;4.54;67.51;101645.44;5094171;28;20055;-62
2021/04/15 00:13:20;;;;;;;11.38;8.13;;;;;;;4.50;68.05;101636.81;5093957;28;20059;-62
2021/04/15 00:15:47;;;;;;;13.35;9.02;;;;;;;4.47;67.83;101640.91;5094493;28;20051;-62
2021/04/15 00:18:14;;;;;;;12.63;9.13;;;;;;;4.47;68.41;101642.81;5094336;28;20382;-62
2021/04/15 00:20:44;;;;;;;12.93;8.40;;;;;;;4.52;69.09;101639.34;5094266;28;20059;-62
2021/04/15 00:23:11;;;;;;;9.95;7.75;;;;;;;4.57;68.67;101640.25;5093636;28;20052;-62
2021/04/15 00:25:38;;;;;;;10.25;8.23;;;;;;;4.60;68.34;101636.16;5092529;28;20412;-62
2021/04/15 00:28:06;;;;;;;15.82;8.52;;;;;;;4.64;67.92;101642.88;5094075;28;20055;-62
2021/04/15 00:30:37;;;;;;;10.10;8.13;;;;;;;4.64;67.90;101637.34;5094657;28;20388;-62
2021/04/15 00:33:07;;;;;;;11.15;8.48;;;;;;;4.68;68.27;101633.03;5094407;28;20063;-62
2021/04/15 00:35:35;;;;;;;10.05;8.00;;;;;;;4.71;68.20;101637.22;5093808;28;20052;-62
2021/04/15 00:38:02;;;;;;;10.52;8.02;;;;;;;4.75;67.58;101632.91;5093431;28;20048;-65
2021/04/15 00:40:30;;;;;;;9.73;8.70;;;;;;;4.73;67.22;101624.84;5093755;28;20056;-60
2021/04/15 00:42:57;;;;;;;11.88;8.68;;;;;;;4.71;67.72;101626.19;5093285;28;20533;-62
2021/04/15 00:45:29;;;;;;;10.70;9.02;;;;;;;4.74;67.60;101618.22;5093708;28;20052;-62
2021/04/15 00:48:05;;;;;;;11.38;9.10;;;;;;;4.74;68.32;101628.44;5093174;28;20048;-62
2021/04/15 00:50:36;;;;;;;9.05;7.93;;;;;;;4.80;67.96;101625.53;5093790;28;20060;-62
2021/04/15 00:53:06;;;;;;;10.48;8.55;;;;;;;4.84;68.18;101623.94;5094125;28;20048;-62
2021/04/15 00:55:34;;;;;;;10.45;8.07;;;;;;;4.86;67.29;101624.53;5093560;28;20059;-62
2021/04/15 00:58:04;;;;;;;8.90;7.45;;;;;;;4.88;66.83;101619.59;5092488;28;20048;-62
2021/04/15 01:00:32;;;;;;;10.95;8.70;;;;;;;4.85;66.56;101619.25;5094368;28;20063;-62
2021/04/15 01:03:03;;;;;;;9.98;8.48;;;;;;;4.80;66.90;101622.75;5093757;28;20052;-62
2021/04/15 01:05:33;;;;;;;11.68;9.30;;;;;;;4.74;66.71;101614.63;5093222;28;20063;-62
2021/04/15 01:08:01;;;;;;;12.23;10.10;;;;;;;4.64;66.81;101621.66;5093801;28;20048;-62
2021/04/15 01:10:30;;;;;;;10.38;8.90;;;;;;;4.58;66.52;101621.81;5093319;28;20060;-62
2021/04/15 01:13:11;;;;;;;13.30;8.97;;;;;;;4.51;66.83;101619.16;5093397;28;20059;-62
2021/04/15 01:15:53;;;;;;;11.02;8.32;;;;;;;4.45;66.74;101612.72;5092961;28;20052;-62
2021/04/15 01:18:25;;;;;;;11.63;8.15;;;;;;;4.42;66.69;101612.38;5093234;28;20396;-62
2021/04/15 01:21:30;;;;;;;10.23;8.07;;;;;;;4.36;67.34;101611.44;5092971;28;20052;-62
2021/04/15 01:24:04;;;;;;;11.93;7.75;;;;;;;4.36;67.73;101611.44;5092689;28;20051;-62
2021/04/15 01:26:58;;;;;;;9.63;7.68;;;;;;;4.37;68.11;101620.56;5093406;28;20059;-62
2021/04/15 01:29:33;;;;;;;9.70;8.45;;;;;;;4.44;67.96;101619.31;5093078;28;20052;-62
2021/04/15 01:32:14;;;;;;;14.45;11.55;;;;;;;4.53;67.57;101613.41;5093576;28;20048;-62
2021/04/15 01:34:47;;;;;;;14.00;11.50;;;;;;;4.60;67.51;101614.94;5093387;28;20570;-62
2021/04/15 01:37:22;;;;;;;16.05;12.30;;;;;;;4.65;67.83;101619.72;5092991;28;20504;-62
2021/04/15 01:39:53;;;;;;;12.52;10.10;;;;;;;4.67;68.06;101621.16;5092742;28;20122;-62
2021/04/15 01:42:28;;;;;;;13.43;10.80;;;;;;;4.75;67.92;101622.69;5092461;28;20338;-62
2021/04/15 01:45:01;;;;;;;13.35;10.95;;;;;;;4.82;67.23;101622.53;5093396;28;20062;-62
2021/04/15 01:47:33;;;;;;;14.18;11.40;;;;;;;4.92;66.84;101616.38;5092167;28;20071;-62
2021/04/15 01:50:06;;;;;;;18.17;12.48;;;;;;;4.95;66.64;101613.94;5092588;28;20055;-62
2021/04/15 01:52:37;;;;;;;16.48;13.45;;;;;;;5.00;66.51;101613.19;5092670;28;20048;-62
2021/04/15 01:55:11;;;;;;;14.95;12.23;;;;;;;5.02;66.73;101616.56;5093005;28;20048;-62
2021/04/15 01:57:45;;;;;;;15.23;12.48;;;;;;;5.08;66.08;101618.28;5092604;28;20523;-62
2021/04/15 02:00:18;;;;;;;13.73;11.13;;;;;;;5.09;65.98;101615.28;5092410;28;20048;-62
2021/04/15 02:02:49;;;;;;;13.60;10.63;;;;;;;5.15;65.67;101616.22;5092993;28;20523;-65
2021/04/15 02:05:21;;;;;;;12.68;9.75;;;;;;;5.15;65.49;101616.22;5091477;28;20477;-62
2021/04/15 02:07:52;;;;;;;12.77;10.50;;;;;;;5.11;65.94;101611.44;5092691;28;20052;-62
2021/04/15 02:10:23;;;;;;;15.27;10.38;;;;;;;5.00;66.15;101607.69;5092020;28;20405;-62
2021/04/15 02:12:54;;;;;;;11.98;10.00;;;;;;;4.99;66.39;101604.06;5092109;28;20056;-62
2021/04/15 02:15:26;;;;;;;12.07;9.93;;;;;;;5.03;66.43;101609.94;5092168;28;20493;-62
2021/04/15 02:18:00;;;;;;;13.40;10.60;;;;;;;5.04;66.24;101614.34;5092818;28;20052;-62
2021/04/15 02:20:29;;;;;;;14.23;11.63;;;;;;;5.00;65.87;101611.28;5092329;28;20052;-62
2021/04/15 02:23:03;;;;;;;14.68;12.23;;;;;;;4.88;66.63;101603.03;5092323;28;20059;-62
2021/04/15 02:25:37;;;;;;;17.38;12.60;;;;;;;4.83;66.50;101614.00;5095747;28;20488;-62
2021/04/15 02:28:10;;;;;;;14.15;11.52;;;;;;;4.77;66.21;101623.28;5096053;28;20413;-62
2021/04/15 02:30:44;;;;;;;14.65;11.95;;;;;;;4.63;66.14;101619.13;5095999;28;20083;-62
2021/04/15 02:33:18;;;;;;;17.35;12.70;;;;;;;4.49;66.64;101624.09;5096754;28;20075;-62
2021/04/15 02:35:51;;;;;;;19.08;13.80;;;;;;;4.36;66.54;101625.22;5096108;28;20508;-62
2021/04/15 02:38:25;;;;;;;18.70;13.88;;;;;;;4.26;66.33;101616.72;5095977;28;20055;-62
2021/04/15 02:40:56;;;;;;;20.20;15.60;;;;;;;4.12;67.63;101618.09;5096629;28;20063;-62
2021/04/15 02:43:30;;;;;;;19.45;14.48;;;;;;;4.02;67.42;101619.53;5096385;28;20052;-62
2021/04/15 02:46:03;;;;;;;21.52;15.30;;;;;;;3.98;68.08;101623.88;5096963;28;20052;-62
2021/04/15 02:48:36;;;;;;;21.98;14.93;;;;;;;3.93;68.49;101620.19;5096329;28;20048;-62
2021/04/15 02:51:08;;;;;;;20.65;14.45;;;;;;;3.85;68.79;101615.88;5096048;28;20048;-62
2021/04/15 02:53:39;;;;;;;18.98;14.32;;;;;;;3.86;68.72;101623.03;5096045;28;20044;-62
2021/04/15 02:56:10;;;;;;;20.63;14.23;;;;;;;3.87;69.79;101616.47;5096729;28;20048;-60
2021/04/15 02:58:42;;;;;;;17.63;13.35;;;;;;;3.85;69.40;101624.97;5096091;28;20052;-62
2021/04/15 03:01:15;;;;;;;20.08;14.32;;;;;;;3.83;69.01;101615.25;5095665;28;20055;-62
2021/04/15 03:03:48;;;;;;;18.40;13.65;;;;;;;3.83;69.92;101620.78;5096444;28;20055;-62
2021/04/15 03:06:19;;;;;;;21.05;14.35;;;;;;;3.86;69.42;101620.28;5095351;28;20052;-62
2021/04/15 03:08:49;;;;;;;22.67;15.15;;;;;;;3.88;70.25;101618.13;5095416;28;20048;-62
2021/04/15 03:11:22;;;;;;;17.65;13.90;;;;;;;3.87;70.34;101616.47;5096332;28;20048;-62
2021/04/15 03:13:54;;;;;;;19.67;14.85;;;;;;;3.93;70.26;101626.53;5096455;28;20492;-62
2021/04/15 03:16:31;;;;;;;19.63;13.98;;;;;;;3.96;70.69;101626.03;5095965;28;20063;-62
2021/04/15 03:19:02;;;;;;;18.95;14.07;;;;;;;4.00;70.37;101627.22;5094777;28;20055;-62
2021/04/15 03:21:36;;;;;;;19.27;13.95;;;;;;;4.00;69.90;101627.22;5095266;28;20063;-62
2021/04/15 03:24:12;;;;;;;19.45;13.50;;;;;;;3.96;69.31;101628.78;5095274;28;20051;-62
2021/04/15 03:26:47;;;;;;;19.52;13.35;;;;;;;3.90;69.29;101631.66;5094648;28;20074;-62
2021/04/15 03:29:21;;;;;;;20.10;13.88;;;;;;;3.80;69.25;101632.28;5095550;28;20055;-62
2021/04/15 03:32:01;;;;;;;23.13;16.85;;;;;;;3.77;69.02;101638.28;5095695;28;20064;-60
2021/04/15 03:34:37;;;;;;;22.23;14.85;;;;;;;3.70;68.75;101629.31;5094689;28;20063;-60
2021/04/15 03:37:06;;;;;;;19.77;14.10;;;;;;;3.56;68.99;101636.97;5094539;28;20366;-61
2021/04/15 03:39:36;;;;;;;19.08;13.27;;;;;;;3.45;69.13;101633.13;5095396;28;20051;-62
2021/04/15 03:42:07;;;;;;;;;;;;;;;3.36;68.61;101637.28;5095261;28;20063;-61
2021/04/15 03:44:39;;;;;;;19.88;12.82;;;;;;;3.21;68.15;101629.47;5094373;28;19927;-63
2021/04/15 03:47:11;;;;;;;17.70;12.50;;;;;;;3.10;67.76;101638.56;5094673;28;20055;-62
2021/04/15 03:49:42;;;;;;;20.35;12.60;;;;;;;2.98;67.84;101641.28;5094897;28;20051;-62
2021/04/15 03:52:14;;;;;;;19.15;13.75;;;;;;;2.85;68.90;101632.13;5094733;28;20052;-62
2021/04/15 03:54:47;;;;;;;20.92;13.68;;;;;;;2.74;68.60;101638.44;5094758;28;20055;-62
2021/04/15 03:57:17;;;;;;;19.50;14.50;;;;;;;2.63;69.27;101631.00;5094744;28;20059;-61
2021/04/15 03:59:48;;;;;;;21.42;15.02;;;;;;;2.58;69.35;101633.59;5094775;28;20051;-62
2021/04/15 04:02:21;;;;;;;24.70;15.95;;;;;;;2.49;69.83;101632.25;5094482;28;20059;-62
2021/04/15 04:04:52;;;;;;;23.60;15.38;;;;;;;2.44;69.28;101636.53;5094737;28;20489;-62
2021/04/15 04:07:24;;;;;;;24.75;15.57;;;;;;;2.39;69.90;101633.66;5094555;28;20056;-62
2021/04/15 04:09:57;;;;;;;24.73;15.27;;;;;;;2.35;70.05;101643.44;5095147;28;20055;-62
2021/04/15 04:12:32;;;;;;;26.20;16.30;;;;;;;2.31;70.20;101642.22;5094101;28;20044;-62
2021/04/15 04:15:07;;;;;;;25.27;15.65;;;;;;;2.26;70.32;101639.31;5094556;28;20044;-60
2021/04/15 04:17:41;;;;;;;27.50;16.70;;;;;;;2.25;70.16;101643.13;5094523;28;20052;-62
2021/04/15 04:20:10;;;;;;;26.60;16.10;;;;;;;2.19;70.25;101650.38;5094021;28;20469;-62
2021/04/15 04:22:49;;;;;;;28.35;16.60;;;;;;;2.17;71.03;101652.50;5094586;28;20079;-63
2021/04/15 04:25:23;;;;;;;27.23;16.45;;;;;;;2.13;70.36;101653.22;5093727;28;20056;-63
2021/04/15 04:27:57;;;;;;;24.38;16.13;;;;;;;2.08;71.07;101659.41;5094050;28;20056;-61
2021/04/15 04:30:28;;;;;;;26.70;16.50;;;;;;;2.07;71.30;101659.63;5094510;28;20047;-62
2021/04/15 04:33:00;;;;;;;30.63;17.70;;;;;;;2.07;70.95;101656.88;5094137;28;20058;-63
2021/04/15 04:35:33;;;;;;;27.35;16.92;;;;;;;2.07;70.92;101654.94;5094344;28;20054;-62
2021/04/15 04:38:04;;;;;;;25.77;16.50;;;;;;;2.00;71.64;101666.03;5093321;28;20056;-62
2021/04/15 04:40:34;;;;;;;26.15;16.50;;;;;;;2.01;71.21;101655.88;5073786;28;20060;-62
2021/04/15 04:43:06;;;;;;;29.27;16.25;;;;;;;2.02;71.05;101660.31;5089679;28;20052;-62
2021/04/15 04:45:34;;;;;;;23.48;14.63;;;;;;;2.08;72.03;101672.28;5093915;28;20056;-62
2021/04/15 04:48:06;;;;;;;23.85;15.32;;;;;;;2.09;72.14;101671.22;5093147;28;20063;-62
2021/04/15 04:50:41;;;;;;;24.83;14.80;;;;;;;2.13;70.97;101680.69;5092940;28;20400;-62
2021/04/15 04:53:12;;;;;;;22.50;14.73;;;;;;;2.07;70.67;101674.19;5093529;28;20063;-60
2021/04/15 04:55:43;;;;;;;23.05;14.48;;;;;;;2.08;70.81;101680.53;5093081;28;20423;-59
2021/04/15 04:58:13;;;;;;;25.38;15.52;;;;;;;2.07;69.99;101673.34;5093415;28;20052;-63
2021/04/15 05:00:47;;;;;;;28.63;15.48;;;;;;;2.11;70.35;101686.41;5093612;28;20052;-59
2021/04/15 05:03:20;;;;;;;26.27;16.23;;;;;;;2.11;70.38;101680.91;5093223;28;20516;-60
2021/04/15 05:05:48;;;;;;;28.67;15.90;;;;;;;2.12;70.30;101684.50;5092943;28;20048;-62
2021/04/15 05:08:22;;;;;;;23.63;15.63;;;;;;;2.17;70.49;101692.91;5090076;28;20165;-62
2021/04/15 05:10:51;;;;;;;27.58;15.77;;;;;;;2.12;69.67;101687.25;5089521;28;20040;-62
2021/04/15 05:13:21;;;;;;;24.73;16.38;;;;;;;2.15;69.80;101692.31;5090318;28;20063;-61
2021/04/15 05:15:48;;;;;;;24.25;15.32;;;;;;;2.19;69.93;101699.03;5090761;28;20044;-62
2021/04/15 05:18:22;;;;;;;25.08;15.27;;;;;;;2.14;69.26;101685.09;5090538;28;20056;-62
2021/04/15 05:20:56;;;;;;;27.98;16.83;;;;;;;2.14;69.15;101690.59;5090284;28;20059;-62
2021/04/15 05:23:26;;;;;;;24.67;17.05;;;;;;;2.15;69.49;101692.31;5092163;28;20052;-62
2021/04/15 05:26:07;;;;;;;26.75;17.15;;;;;;;2.16;69.77;101696.72;5090120;28;20043;-62
2021/04/15 05:28:36;;;;;;;35.08;18.45;;;;;;;2.19;69.24;101701.78;5092896;28;20185;-62
2021/04/15 05:31:06;;;;;;;30.65;17.98;;;;;;;2.25;69.98;101709.09;5092533;28;20170;-62
2021/04/15 05:33:37;;;;;;;28.20;17.48;;;;;;;2.35;69.96;101700.31;5091926;28;20495;-62
2021/04/15 05:36:10;;;;;;;27.73;18.08;;;;;;;2.47;69.43;101705.88;5072255;28;20049;-62
2021/04/15 05:38:41;;;;;;;25.92;16.50;;;;;;;2.55;69.11;101700.91;5092037;28;20055;-61
2021/04/15 05:41:12;;;;;;;29.45;18.33;;;;;;;2.56;69.00;101708.13;5090195;28;20048;-61
2021/04/15 05:43:45;;;;;;;29.88;17.90;;;;;;;2.58;68.81;101696.84;5089974;28;20067;-62
2021/04/15 05:46:18;;;;;;;30.50;18.45;;;;;;;2.58;69.10;101699.59;5092513;28;20048;-61
2021/04/15 05:48:47;;;;;;;32.88;20.42;;;;;;;2.72;69.24;101703.03;5091667;28;20067;-62
2021/04/15 05:51:19;;;;;;;31.20;19.67;;;;;;;2.78;69.58;101702.94;5086333;28;20052;-62
2021/04/15 05:53:51;;;;;;;30.05;20.02;;;;;;;2.94;68.54;101698.72;5081754;28;20458;-62
2021/04/15 05:56:22;;;;;;;31.23;20.05;;;;;;;3.03;68.32;101699.22;5087126;28;20040;-62
2021/04/15 05:58:57;;;;;;;32.00;20.30;;;;;;;3.13;68.70;101705.00;5090049;28;20063;-62
2021/04/15 06:01:31;;;;;;;30.20;19.00;;;;;;;3.23;68.04;101696.16;5092265;28;20047;-62
2021/04/15 06:04:06;;;;;;;28.90;19.52;;;;;;;3.33;68.41;101695.59;5091904;28;20052;-62
2021/04/15 06:06:37;;;;;;;30.65;19.80;;;;;;;3.50;68.65;101701.25;5092392;28;20048;-62
2021/04/15 06:09:06;;;;;;;33.05;19.65;;;;;;;3.59;68.20;101700.69;5091932;28;20048;-61
2021/04/15 06:11:45;;;;;;;28.63;19.10;;;;;;;3.73;68.10;101697.69;5091767;28;20055;-61
2021/04/15 06:14:22;;;;;;;25.90;18.30;;;;;;;3.86;67.84;101702.97;5091952;28;20481;-62
2021/04/15 06:17:17;;;;;;;25.13;18.05;;;;;;;3.97;67.58;101702.16;5091929;28;20075;-61
2021/04/15 06:19:50;;;;;;;29.65;18.60;;;;;;;4.03;66.67;101709.47;5089706;28;20073;-62
2021/04/15 06:22:21;;;;;;;26.77;18.52;;;;;;;4.12;66.97;101706.34;5085527;28;20074;-62
2021/04/15 06:24:54;;;;;;;23.88;17.05;;;;;;;4.22;67.19;101706.53;5087990;28;20052;-62
2021/04/15 06:27:24;;;;;;;23.27;17.35;;;;;;;4.34;66.39;101709.28;5090011;28;20143;-60
2021/04/15 06:29:58;;;;;;;27.20;17.17;;;;;;;4.46;66.90;101708.19;5091909;28;20056;-61
2021/04/15 06:32:33;;;;;;;23.33;17.45;;;;;;;4.60;66.85;101710.66;5086060;28;20469;-61
2021/04/15 06:35:01;;;;;;;30.75;17.52;;;;;;;4.71;66.49;101709.00;5090417;28;20496;-59
2021/04/15 06:37:36;;;;;;;24.85;16.80;;;;;;;4.86;66.30;101707.34;5085903;28;20044;-60
2021/04/15 06:40:28;;;;;;;21.58;15.50;;;;;;;4.99;65.85;101708.16;5088070;28;20052;-58
2021/04/15 06:43:16;;;;;;;21.13;15.50;;;;;;;5.09;65.99;101713.88;5074838;28;20063;-59
2021/04/15 06:45:58;;;;;;;23.30;15.70;;;;;;;5.20;65.45;101710.19;5083183;28;20048;-58
2021/04/15 06:48:44;;;;;;;21.17;15.10;;;;;;;5.38;65.55;101706.41;5083927;28;20505;-57
2021/04/15 06:51:38;;;;;;;18.35;14.55;;;;;;;5.52;64.47;101698.59;5086673;28;20048;-57
2021/04/15 06:54:29;;;;;;;19.98;14.00;;;;;;;5.65;64.11;101709.34;5085578;28;20408;-59
2021/04/15 06:57:18;;;;;;;19.17;13.98;;;;;;;5.79;63.54;101709.00;5078445;28;20052;-57
2021/04/15 06:59:54;;;;;;;;;;;;;;;5.97;63.10;101708.78;5084448;28;20052;-59
2021/04/15 07:02:37;;;;;;;17.25;13.45;;;;;;;6.12;62.70;101710.94;5084357;28;19928;-59
2021/04/15 07:05:12;;;;;;;16.95;12.98;;;;;;;6.27;62.26;101704.78;5089543;28;20499;-56
2021/04/15 07:07:47;;;;;;;16.58;12.98;;;;;;;6.46;62.17;101699.78;5087743;28;20385;-56
2021/04/15 07:10:23;;;;;;;17.55;13.25;;;;;;;6.65;61.94;101700.28;5085607;28;20051;-65
2021/04/15 07:13:19;;;;;;;13.70;11.52;;;;;;;6.82;60.88;101706.59;5092934;28;20056;-56
2021/04/15 07:16:24;;;;;;;16.33;11.88;;;;;;;7.03;60.38;101696.56;5073958;28;20382;-58
2021/04/15 07:19:27;;;;;;;17.08;12.05;;;;;;;7.29;60.20;101697.69;5092591;28;20071;-56
2021/04/15 07:22:08;;;;;;;15.05;11.80;;;;;;;7.49;60.39;101704.53;5088259;28;20055;-57
2021/04/15 07:24:57;;;;;;;14.13;11.73;;;;;;;7.77;58.56;101699.75;5092645;28;20052;-56
2021/04/15 07:27:51;;;;;;;18.92;11.85;;;;;;;8.33;58.26;101708.47;5090894;28;20052;-58
2021/04/15 07:30:54;;;;;;;14.35;10.75;;;;;;;9.93;52.61;101703.06;5079995;28;20051;-58
2021/04/15 07:33:45;;;;;;;13.80;10.10;;;;;;;11.57;47.06;101693.16;5088081;28;20064;-59
2021/04/15 07:36:35;;;;;;;10.82;9.07;;;;;;;12.94;43.20;101690.03;5091945;28;20056;-60
2021/04/15 07:39:29;;;;;;;14.55;9.85;;;;;;;14.17;40.57;101682.47;5091448;28;20075;-58
2021/04/15 07:42:21;;;;;;;9.73;8.60;;;;;;;15.55;37.96;101689.88;5091011;28;20524;-60
2021/04/15 07:44:53;;;;;;;10.10;8.32;;;;;;;17.01;35.04;101692.16;5091079;28;20063;-60
2021/04/15 07:47:38;;;;;;;9.65;8.25;;;;;;;18.14;32.64;101694.09;5092992;28;20048;-59
2021/04/15 07:50:31;;;;;;;8.05;7.03;;;;;;;19.19;29.88;101685.94;5090221;28;20059;-56
2021/04/15 07:53:22;;;;;;;10.27;7.68;;;;;;;19.90;28.62;101692.66;5092628;28;20430;-60
2021/04/15 07:56:25;;;;;;;8.70;7.10;;;;;;;20.83;26.84;101681.72;5092620;28;20059;-59
2021/04/15 07:59:08;;;;;;;8.55;6.68;;;;;;;21.78;26.07;101684.25;5092828;28;20048;-61
2021/04/15 08:02:08;;;;;;;8.73;7.00;;;;;;;22.33;24.71;101693.06;5085017;28;20056;-57
2021/04/15 08:05:04;;;;;;;7.10;6.03;;;;;;;22.61;23.26;101690.09;5056736;28;20074;-60
2021/04/15 08:07:43;;;;;;;8.07;4.97;;;;;;;23.76;20.57;101687.03;5090903;28;20052;-58
2021/04/15 08:10:35;;;;;;;7.80;4.68;;;;;;;24.31;19.54;101685.66;5081384;28;20059;-59
2021/04/15 08:13:30;;;;;;;4.47;3.70;;;;;;;25.04;18.95;101685.66;5091332;28;20048;-59
2021/04/15 08:16:25;;;;;;;5.53;3.72;;;;;;;25.10;18.00;101686.97;5092345;28;20100;-60
2021/04/15 08:19:12;;;;;;;6.18;4.88;;;;;;;25.57;17.86;101687.63;5090216;28;20513;-60
2021/04/15 08:21:44;;;;;;;6.15;4.32;;;;;;;26.30;18.09;101687.25;5089183;28;20059;-60
2021/04/15 08:24:37;;;;;;;5.18;4.05;;;;;;;27.33;16.63;101681.53;5092498;28;20048;-59
2021/04/15 08:27:37;;;;;;;4.68;3.35;;;;;;;27.91;15.27;101682.59;5084700;28;20060;-61
2021/04/15 08:30:31;;;;;;;4.85;3.80;;;;;;;28.50;14.54;101681.50;5076732;28;20044;-61
2021/04/15 08:33:41;;;;;;;4.38;3.67;;;;;;;29.55;13.80;101683.75;5091788;28;20484;-61
2021/04/15 08:36:21;;;;;;;6.20;4.40;;;;;;;30.21;13.49;101687.91;5042681;28;20461;-61
2021/04/15 08:38:55;;;;;;;4.90;3.97;;;;;;;31.23;12.34;101694.47;5076459;28;20397;-61
2021/04/15 08:41:36;;;;;;;8.38;4.28;;;;;;;31.71;12.24;101693.50;5091759;28;20048;-62
2021/04/15 08:44:32;;;;;;;4.85;3.83;;;;;;;31.80;11.36;101690.06;5090006;28;20052;-62
2021/04/15 08:47:13;;;;;;;4.82;4.00;;;;;;;29.73;12.67;101700.94;5092288;28;20063;-62
2021/04/15 08:49:49;;;;;;;6.72;4.20;;;;;;;28.60;14.23;101697.03;5091961;28;20193;-61
2021/04/15 08:52:31;;;;;;;6.25;3.80;;;;;;;26.50;15.42;101704.97;5088028;28;20748;-61
2021/04/15 08:55:12;;;;;;;6.85;4.05;;;;;;;26.83;15.28;101708.97;5091161;28;20059;-61
2021/04/15 08:57:44;;;;;;;4.78;3.58;;;;;;;25.45;16.34;101703.00;5092648;28;20396;-61
2021/04/15 09:00:22;;;;;;;4.82;4.03;;;;;;;27.79;14.99;101700.13;5089720;28;20079;-61
2021/04/15 09:03:00;;;;;;;6.83;3.80;;;;;;;26.96;15.02;101710.28;5091858;28;20051;-61
2021/04/15 09:05:39;;;;;;;7.32;4.03;;;;;;;26.96;15.53;101713.13;5090407;28;20048;-61
2021/04/15 09:08:16;;;;;;;6.05;4.18;;;;;;;25.59;16.38;101702.34;5077472;28;20051;-61
2021/04/15 09:10:52;;;;;;;6.00;4.22;;;;;;;24.38;17.52;101706.94;5089841;28;20461;-61
2021/04/15 09:13:32;;;;;;;8.75;4.03;;;;;;;23.16;18.44;101710.13;5090384;28;20393;-61
2021/04/15 09:16:14;;;;;;;7.30;4.50;;;;;;;21.86;20.09;101715.28;5091555;28;20071;-60
2021/04/15 09:18:53;;;;;;;8.05;3.85;;;;;;;22.54;19.17;101707.78;5091802;28;20500;-61
2021/04/15 09:21:42;;;;;;;5.00;4.03;;;;;;;22.54;19.66;101707.78;5090721;28;20052;-60
2021/04/15 09:24:18;;;;;;;7.88;4.30;;;;;;;21.77;20.67;101713.78;5082268;28;20052;-61
2021/04/15 09:27:09;;;;;;;6.40;3.92;;;;;;;21.66;20.77;101708.59;5082038;28;20047;-61
2021/04/15 09:29:45;;;;;;;5.65;4.32;;;;;;;24.12;18.39;101702.81;5086388;28;20492;-61
2021/04/15 09:32:20;;;;;;;6.40;3.92;;;;;;;26.95;15.74;101696.41;5091713;28;20063;-61
2021/04/15 09:35:20;;;;;;;5.93;3.78;;;;;;;24.21;17.29;101708.25;5089202;28;20519;-61
2021/04/15 09:38:17;;;;;;;6.20;4.32;;;;;;;24.53;17.38;101700.34;5080033;28;20051;-61
2021/04/15 09:41:15;;;;;;;6.05;5.22;;;;;;;28.01;14.69;101700.22;5080869;28;20059;-61
2021/04/15 09:44:03;;;;;;;6.30;4.38;;;;;;;25.46;16.26;101709.50;5066528;28;20065;-61
2021/04/15 09:46:38;;;;;;;5.50;3.67;;;;;;;24.32;16.97;101706.44;5068977;28;20052;-60
2021/04/15 09:49:26;;;;;;;4.80;3.58;;;;;;;23.01;19.02;101709.78;5068959;28;20075;-61
2021/04/15 09:52:11;;;;;;;6.25;4.13;;;;;;;23.23;18.57;101699.75;5056603;28;20186;-61
2021/04/15 09:54:51;;;;;;;5.22;3.97;;;;;;;26.62;15.24;101707.56;5070889;28;20066;-61
2021/04/15 09:57:31;;;;;;;5.28;3.92;;;;;;;29.16;12.80;101695.34;5058557;28;20055;-61
2021/04/15 10:00:08;;;;;;;5.10;3.85;;;;;;;29.52;12.72;101690.34;5070402;28;20059;-62
2021/04/15 10:02:45;;;;;;;5.43;3.83;;;;;;;27.45;14.42;101697.53;5069163;28;20083;-61
2021/04/15 10:05:52;;;;;;;5.50;3.90;;;;;;;26.38;15.62;101694.69;5069229;28;20052;-61
2021/04/15 10:08:28;;;;;;;5.43;4.43;;;;;;;25.17;16.67;101696.84;5071663;28;20051;-61
2021/04/15 10:11:04;;;;;;;4.78;3.90;;;;;;;26.00;15.84;101695.94;5070909;28;20090;-62
2021/04/15 10:13:42;;;;;;;9.45;4.45;;;;;;;27.60;14.51;101689.03;5068695;28;20499;-62
2021/04/15 10:16:18;;;;;;;5.78;4.40;;;;;;;29.77;13.14;101682.88;5070901;28;20063;-62
2021/04/15 10:19:02;;;;;;;7.70;3.95;;;;;;;31.04;12.50;101682.31;5070807;28;20511;-62
2021/04/15 10:21:41;;;;;;;6.40;4.32;;;;;;;33.67;9.50;101690.59;5051084;28;20056;-62
2021/04/15 10:24:19;;;;;;;5.43;4.38;;;;;;;34.09;9.97;101683.00;5063726;28;20053;-61
2021/04/15 10:27:34;;;;;;;5.95;4.05;;;;;;;31.12;11.40;101685.91;5071116;28;20045;-61
2021/04/15 10:30:33;;;;;;;6.13;4.22;;;;;;;29.63;12.48;101686.56;5051187;28;20055;-61
2021/04/15 10:33:19;;;;;;;6.38;4.63;;;;;;;26.61;14.76;101688.78;5067635;28;20358;-63
2021/04/15 10:36:15;;;;;;;5.50;4.63;;;;;;;29.93;11.69;101686.88;5066679;28;20049;-62
2021/04/15 10:39:25;;;;;;;6.10;4.80;;;;;;;32.00;10.10;101676.63;5070069;28;20041;-62
2021/04/15 10:42:42;;;;;;;5.50;4.60;;;;;;;33.83;9.81;101666.69;5050202;28;20497;-62
2021/04/15 10:45:42;;;;;;;6.90;4.72;;;;;;;33.54;9.69;101667.31;5091699;28;20044;-62
2021/04/15 10:48:25;;;;;;;4.97;4.10;;;;;;;31.34;10.77;101675.81;5060726;28;20055;-62
2021/04/15 10:50:57;;;;;;;6.88;5.05;;;;;;;29.26;12.66;101676.47;5094193;28;20162;-62
2021/04/15 10:53:49;;;;;;;6.72;5.53;;;;;;;27.26;14.83;101672.91;5093116;28;20059;-62
2021/04/15 10:56:34;;;;;;;6.25;5.35;;;;;;;26.56;15.01;101674.00;5091259;28;20056;-62
2021/04/15 10:59:09;;;;;;;6.55;5.65;;;;;;;26.78;15.32;101681.56;5091958;28;20409;-61
2021/04/15 11:01:38;;;;;;;7.40;6.70;;;;;;;26.00;15.85;101673.09;5094119;28;20381;-62
2021/04/15 11:04:24;;;;;;;8.32;6.50;;;;;;;26.51;15.18;101672.34;5090461;28;20048;-62
2021/04/15 11:06:54;;;;;;;7.32;6.05;;;;;;;24.83;16.18;101676.81;5087347;28;20051;-61
2021/04/15 11:09:31;;;;;;;7.30;6.55;;;;;;;23.75;17.67;101682.53;5091576;28;20079;-61
2021/04/15 11:12:01;;;;;;;7.95;7.15;;;;;;;22.93;18.73;101682.38;5091840;28;20075;-61
2021/04/15 11:14:35;;;;;;;8.85;6.82;;;;;;;22.45;19.26;101678.78;5090049;28;20492;-61
2021/04/15 11:17:06;;;;;;;10.80;7.10;;;;;;;22.53;19.07;101669.22;5090902;28;20052;-61
2021/04/15 11:19:36;;;;;;;8.35;7.07;;;;;;;21.78;19.97;101662.38;5093692;28;20063;-61
2021/04/15 11:22:18;;;;;;;8.95;7.53;;;;;;;21.97;20.25;101667.34;5091638;28;20405;-61
2021/04/15 11:24:46;;;;;;;7.85;6.68;;;;;;;25.48;16.60;101653.72;5092799;28;20059;-61
2021/04/15 11:27:14;;;;;;;8.40;6.28;;;;;;;28.49;14.55;101649.13;5092820;28;20055;-61
2021/04/15 11:29:44;;;;;;;6.97;5.38;;;;;;;28.22;13.91;101647.88;5092360;28;20051;-63
2021/04/15 11:32:25;;;;;;;6.55;5.50;;;;;;;25.91;15.22;101653.41;5092391;28;20066;-62
2021/04/15 11:35:05;;;;;;;10.23;5.68;;;;;;;26.78;15.06;101643.59;5089941;28;20047;-62
2021/04/15 11:37:35;;;;;;;8.20;5.72;;;;;;;29.10;12.58;101634.69;5092986;28;20055;-62
2021/04/15 11:40:26;;;;;;;8.90;5.95;;;;;;;27.47;14.07;101626.41;5086959;28;20063;-62
2021/04/15 11:42:54;;;;;;;9.65;5.47;;;;;;;25.38;16.09;101645.03;5090780;28;20059;-62
2021/04/15 11:45:31;;;;;;;8.65;5.82;;;;;;;23.56;17.66;101641.56;5092235;28;20056;-62
2021/04/15 11:48:19;;;;;;;8.15;6.43;;;;;;;26.37;16.64;101635.06;5095121;28;20051;-62
2021/04/15 11:50:48;;;;;;;5.50;4.35;;;;;;;29.24;13.30;101628.09;5095910;28;20055;-62
2021/04/15 11:53:28;;;;;;;;;;;;;;;28.04;12.66;101625.75;5094145;28;20063;-62
2021/04/15 11:56:13;;;;;;;5.70;3.33;;;;;;;25.88;14.13;101635.00;5093763;28;19920;-62
2021/04/15 11:58:40;;;;;;;6.47;3.30;;;;;;;24.85;14.98;101628.78;5093449;28;20056;-62
2021/04/15 12:01:07;;;;;;;5.20;3.50;;;;;;;24.50;16.06;101627.84;5092461;28;20048;-62
2021/04/15 12:03:34;;;;;;;5.82;3.83;;;;;;;23.01;16.98;101630.22;5083798;28;20052;-61
2021/04/15 12:06:09;;;;;;;5.75;4.00;;;;;;;24.92;15.32;101628.88;5091865;28;20055;-61
2021/04/15 12:08:38;;;;;;;5.15;3.20;;;;;;;26.63;12.75;101620.63;5092142;28;20056;-61